createdAt,value
2024-05-09T00:01:26.947Z,51.14
2024-05-09T00:04:28.851Z,50.97
2024-05-09T00:07:30.627Z,50.55
2024-05-09T00:10:37.083Z,50.50
2024-05-09T00:13:40.621Z,50.80
2024-05-09T00:16:42.526Z,50.42
2024-05-09T00:19:44.635Z,50.72
2024-05-09T00:22:46.473Z,51.02
2024-05-09T00:25:48.360Z,50.53
2024-05-09T00:28:50.345Z,50.79
2024-05-09T00:31:52.343Z,50.75
2024-05-09T00:34:54.223Z,50.62
2024-05-09T00:37:56.099Z,50.75
2024-05-09T00:40:57.964Z,50.60
2024-05-09T00:44:00.269Z,50.40
2024-05-09T00:47:02.101Z,50.47
2024-05-09T00:50:05.589Z,50.68
2024-05-09T00:53:14.328Z,50.21
2024-05-09T00:56:17.194Z,50.65
2024-05-09T00:59:24.150Z,50.17
2024-05-09T01:02:26.059Z,50.63
2024-05-09T01:05:28.028Z,50.51
2024-05-09T01:08:30.074Z,50.69
2024-05-09T01:11:41.673Z,50.72
2024-05-09T01:14:43.674Z,50.34
2024-05-09T01:17:46.325Z,50.47
2024-05-09T01:20:48.246Z,50.68
2024-05-09T01:23:50.210Z,49.94
2024-05-09T01:26:52.153Z,50.46
2024-05-09T01:29:53.955Z,50.24
2024-05-09T01:32:55.875Z,50.29
2024-05-09T01:35:57.937Z,50.09
2024-05-09T01:38:59.783Z,50.62
2024-05-09T01:42:01.828Z,50.43
2024-05-09T01:45:03.701Z,50.24
2024-05-09T01:48:06.166Z,50.53
2024-05-09T01:51:08.637Z,50.59
2024-05-09T01:54:10.920Z,50.49
2024-05-09T01:57:12.723Z,50.47
2024-05-09T02:00:22.135Z,50.66
2024-05-09T02:03:31.585Z,50.59
2024-05-09T02:06:39.955Z,50.92
2024-05-09T02:09:41.904Z,50.64
2024-05-09T02:12:43.669Z,50.48
2024-05-09T02:15:45.498Z,50.75
2024-05-09T02:18:47.491Z,50.63
2024-05-09T02:21:49.373Z,50.47
2024-05-09T02:24:51.215Z,50.65
2024-05-09T02:27:53.057Z,50.42
2024-05-09T02:30:54.874Z,50.50
2024-05-09T02:33:57.024Z,50.99
2024-05-09T02:36:59.038Z,50.88
2024-05-09T02:40:00.990Z,50.81
2024-05-09T02:43:02.727Z,50.59
2024-05-09T02:46:04.876Z,50.68
2024-05-09T02:49:06.781Z,50.98
2024-05-09T02:52:08.632Z,50.60
2024-05-09T02:55:10.388Z,50.80
2024-05-09T02:58:12.433Z,51.16
2024-05-09T03:01:17.891Z,51.08
2024-05-09T03:04:19.761Z,50.80
2024-05-09T03:07:21.581Z,51.29
2024-05-09T03:10:28.361Z,51.36
2024-05-09T03:13:30.864Z,50.86
2024-05-09T03:16:38.432Z,51.65
2024-05-09T03:19:40.309Z,51.85
2024-05-09T03:22:42.188Z,50.54
2024-05-09T03:25:44.058Z,51.27
2024-05-09T03:28:46.048Z,51.18
2024-05-09T03:31:47.963Z,51.73
2024-05-09T03:34:49.808Z,51.95
2024-05-09T03:37:51.670Z,51.46
2024-05-09T03:40:53.474Z,51.92
2024-05-09T03:43:55.389Z,51.69
2024-05-09T03:46:57.687Z,51.76
2024-05-09T03:49:59.451Z,52.12
2024-05-09T03:53:02.087Z,52.54
2024-05-09T03:56:07.903Z,53.61
2024-05-09T04:02:11.466Z,54.67
2024-05-09T04:05:14.050Z,54.47
2024-05-09T04:08:16.105Z,54.06
2024-05-09T04:11:18.481Z,53.84
2024-05-09T04:14:20.566Z,54.41
2024-05-09T04:17:22.585Z,53.95
2024-05-09T04:23:40.675Z,53.90
2024-05-09T04:26:42.710Z,53.60
2024-05-09T04:29:44.589Z,53.96
2024-05-09T04:32:46.625Z,53.44
2024-05-09T04:35:49.653Z,54.21
2024-05-09T04:38:51.541Z,53.83
2024-05-09T04:41:53.538Z,53.53
2024-05-09T04:44:58.675Z,53.28
2024-05-09T04:48:01.287Z,53.05
2024-05-09T04:51:04.243Z,53.43
2024-05-09T04:54:08.458Z,52.90
2024-05-09T04:57:12.505Z,53.28
2024-05-09T05:00:18.082Z,53.15
2024-05-09T05:03:27.730Z,52.64
2024-05-09T05:06:30.707Z,53.48
2024-05-09T05:09:32.500Z,52.77
2024-05-09T05:12:52.605Z,53.26
2024-05-09T05:15:58.607Z,52.98
2024-05-09T05:19:00.719Z,52.91
2024-05-09T05:22:02.664Z,52.94
2024-05-09T05:25:04.725Z,53.15
2024-05-09T05:28:06.818Z,53.33
2024-05-09T05:31:08.683Z,52.64
2024-05-09T05:34:10.549Z,52.85
2024-05-09T05:37:12.318Z,52.81
2024-05-09T05:40:24.657Z,52.42
2024-05-09T05:43:30.149Z,52.75
2024-05-09T05:46:31.903Z,52.97
2024-05-09T05:49:34.654Z,52.47
2024-05-09T05:52:36.440Z,52.66
2024-05-09T05:55:40.078Z,53.03
2024-05-09T05:58:43.299Z,52.59
2024-05-09T06:01:45.229Z,52.74
2024-05-09T06:04:47.271Z,52.38
2024-05-09T06:07:49.212Z,52.03
2024-05-09T06:10:51.194Z,52.44
2024-05-09T06:13:53.139Z,53.16
2024-05-09T06:16:57.644Z,52.56
2024-05-09T06:20:00.143Z,52.27
2024-05-09T06:23:03.367Z,52.49
2024-05-09T06:26:05.419Z,52.35
2024-05-09T06:29:07.476Z,52.37
2024-05-09T06:32:09.373Z,52.32
2024-05-09T06:35:11.237Z,52.60
2024-05-09T06:38:13.191Z,52.99
2024-05-09T06:41:15.361Z,52.28
2024-05-09T06:44:17.187Z,52.34
2024-05-09T06:47:19.108Z,52.32
2024-05-09T06:50:24.224Z,52.34
2024-05-09T06:53:29.750Z,52.39
2024-05-09T06:56:31.839Z,52.37
2024-05-09T06:59:33.699Z,52.25
2024-05-09T07:02:35.901Z,52.31
2024-05-09T07:05:38.023Z,52.73
2024-05-09T07:08:41.340Z,52.18
2024-05-09T07:11:43.327Z,52.35
2024-05-09T07:14:45.261Z,52.50
2024-05-09T07:17:47.284Z,52.14
2024-05-09T07:20:50.250Z,52.91
2024-05-09T07:23:52.561Z,52.80
2024-05-09T07:26:54.373Z,53.21
2024-05-09T07:29:56.595Z,52.62
2024-05-09T07:32:58.857Z,52.91
2024-05-09T07:36:00.831Z,52.57
2024-05-09T07:39:02.709Z,52.60
2024-05-09T07:42:04.990Z,52.62
2024-05-09T07:45:29.546Z,52.11
2024-05-09T07:50:01.360Z,52.38
2024-05-09T07:53:20.939Z,52.82
2024-05-09T07:55:13.845Z,52.03
2024-05-09T07:58:15.770Z,52.57
2024-05-09T08:01:17.829Z,52.32
2024-05-09T08:04:20.861Z,52.86
2024-05-09T08:07:23.197Z,52.41
2024-05-09T08:10:28.835Z,52.77
2024-05-09T08:13:31.201Z,52.60
2024-05-09T08:16:33.120Z,53.01
2024-05-09T08:19:37.802Z,52.78
2024-05-09T08:22:39.665Z,52.96
2024-05-09T08:25:41.448Z,52.09
2024-05-09T08:28:43.306Z,52.92
2024-05-09T08:31:45.159Z,52.76
2024-05-09T08:34:47.228Z,53.16
2024-05-09T08:37:50.115Z,53.00
2024-05-09T08:40:52.313Z,52.50
2024-05-09T08:43:54.550Z,52.83
2024-05-09T08:46:56.924Z,52.92
2024-05-09T08:50:01.205Z,52.85
2024-05-09T08:53:03.161Z,52.58
2024-05-09T08:56:09.689Z,52.67
2024-05-09T08:59:18.176Z,53.46
2024-05-09T09:02:22.364Z,52.78
2024-05-09T09:05:29.798Z,52.84
2024-05-09T09:08:31.996Z,52.94
2024-05-09T09:11:33.887Z,52.44
2024-05-09T09:14:35.685Z,53.34
2024-05-09T09:17:38.411Z,52.49
2024-05-09T09:20:40.298Z,52.82
2024-05-09T09:23:42.112Z,52.96
2024-05-09T09:26:45.550Z,52.65
2024-05-09T09:29:47.344Z,51.91
2024-05-09T09:32:50.244Z,52.67
2024-05-09T09:35:52.261Z,52.32
2024-05-09T09:38:55.389Z,52.88
2024-05-09T09:41:59.647Z,52.10
2024-05-09T09:45:05.551Z,52.19
2024-05-09T09:48:09.010Z,52.24
2024-05-09T09:51:11.673Z,52.33
2024-05-09T09:54:14.100Z,52.40
2024-05-09T09:57:19.559Z,51.94
2024-05-09T10:00:27.461Z,52.14
2024-05-09T10:03:34.852Z,52.23
2024-05-09T10:06:42.450Z,51.85
2024-05-09T10:09:44.292Z,51.93
2024-05-09T10:13:08.598Z,51.82
2024-05-09T10:16:11.276Z,51.95
2024-05-09T10:19:26.562Z,52.09
2024-05-09T10:22:28.904Z,52.16
2024-05-09T10:25:30.768Z,52.29
2024-05-09T10:28:35.333Z,51.84
2024-05-09T10:31:39.516Z,51.72
2024-05-09T10:34:41.464Z,51.75
2024-05-09T10:37:43.878Z,52.05
2024-05-09T10:40:46.572Z,51.78
2024-05-09T10:43:49.394Z,51.60
2024-05-09T10:46:53.877Z,51.78
2024-05-09T10:49:56.154Z,52.11
2024-05-09T10:52:57.919Z,52.46
2024-05-09T10:56:01.113Z,51.94
2024-05-09T10:59:05.977Z,51.94
2024-05-09T11:02:08.199Z,52.53
2024-05-09T11:05:10.453Z,52.32
2024-05-09T11:08:12.601Z,52.18
2024-05-09T11:11:15.179Z,52.52
2024-05-09T11:14:17.628Z,52.28
2024-05-09T11:17:19.468Z,52.16
2024-05-09T11:20:29.077Z,53.07
2024-05-09T11:23:31.823Z,52.00
2024-05-09T11:26:33.750Z,52.25
2024-05-09T11:29:39.912Z,52.48
2024-05-09T11:32:43.008Z,52.88
2024-05-09T11:35:46.937Z,52.32
2024-05-09T11:38:48.820Z,52.72
2024-05-09T11:41:50.710Z,52.49
2024-05-09T11:44:52.458Z,52.53
2024-05-09T11:47:54.693Z,52.90
2024-05-09T11:50:56.738Z,53.03
2024-05-09T11:53:58.599Z,52.38
2024-05-09T11:57:00.446Z,52.14
2024-05-09T12:00:03.076Z,52.61
2024-05-09T12:03:05.995Z,52.84
2024-05-09T12:06:08.240Z,52.69
2024-05-09T12:09:10.091Z,52.63
2024-05-09T12:12:12.478Z,52.48
2024-05-09T12:15:14.374Z,52.51
2024-05-09T12:18:16.273Z,52.02
2024-05-09T12:21:18.260Z,52.35
2024-05-09T12:24:20.004Z,52.49
2024-05-09T12:27:22.356Z,52.73
2024-05-09T12:30:33.112Z,52.66
2024-05-09T12:33:39.638Z,52.84
2024-05-09T12:36:42.189Z,52.66
2024-05-09T12:39:44.057Z,52.66
2024-05-09T12:42:45.899Z,52.24
2024-05-09T12:45:47.856Z,53.25
2024-05-09T12:48:50.015Z,52.15
2024-05-09T12:51:51.978Z,52.00
2024-05-09T12:54:53.896Z,52.09
2024-05-09T12:57:56.218Z,52.26
2024-05-09T13:00:58.364Z,51.92
2024-05-09T13:04:00.321Z,52.42
2024-05-09T13:07:04.309Z,52.00
2024-05-09T13:10:13.815Z,52.85
2024-05-09T13:13:18.230Z,52.29
2024-05-09T13:16:20.274Z,51.64
2024-05-09T13:19:22.240Z,52.34
2024-05-09T13:22:24.146Z,52.14
2024-05-09T13:25:25.985Z,52.08
2024-05-09T13:28:27.955Z,52.42
2024-05-09T13:31:29.983Z,52.29
2024-05-09T13:34:31.951Z,52.36
2024-05-09T13:37:33.830Z,51.87
2024-05-09T13:40:36.632Z,52.12
2024-05-09T13:43:39.036Z,52.43
2024-05-09T13:46:40.967Z,52.67
2024-05-09T13:49:43.063Z,52.05
2024-05-09T13:52:44.904Z,51.91
2024-05-09T13:55:46.945Z,51.77
2024-05-09T13:58:50.618Z,51.86
2024-05-09T14:01:52.585Z,51.45
2024-05-09T14:04:54.690Z,51.66
2024-05-09T14:07:56.706Z,51.37
2024-05-09T14:10:58.674Z,52.01
2024-05-09T14:14:00.618Z,52.17
2024-05-09T14:17:02.526Z,51.29
2024-05-09T14:20:06.106Z,50.52
2024-05-09T14:23:08.112Z,51.14
2024-05-09T14:26:10.019Z,50.94
2024-05-09T14:29:11.789Z,51.20
2024-05-09T14:32:13.639Z,51.48
2024-05-09T14:35:15.421Z,51.06
2024-05-09T14:38:17.216Z,51.10
2024-05-09T14:41:19.064Z,50.56
2024-05-09T14:44:20.843Z,50.96
2024-05-09T14:47:22.881Z,51.23
2024-05-09T14:50:34.462Z,50.92
2024-05-09T14:53:39.522Z,50.73
2024-05-09T14:56:41.858Z,50.41
2024-05-09T14:59:43.649Z,50.66
2024-05-09T15:02:46.558Z,50.56
2024-05-09T15:05:50.768Z,50.49
2024-05-09T15:08:57.819Z,49.43
2024-05-09T15:11:59.672Z,49.91
2024-05-09T15:15:01.471Z,50.74
2024-05-09T15:18:07.142Z,49.46
2024-05-09T15:21:09.225Z,49.81
2024-05-09T15:24:11.150Z,49.15
2024-05-09T15:27:12.979Z,49.64
2024-05-09T15:30:18.130Z,49.08
2024-05-09T15:33:22.647Z,49.52
2024-05-09T15:36:24.631Z,49.97
2024-05-09T15:39:28.448Z,49.19
2024-05-09T15:42:30.403Z,49.75
2024-05-09T15:45:32.328Z,48.45
2024-05-09T15:48:34.657Z,48.04
2024-05-09T15:51:36.733Z,49.27
2024-05-09T15:54:38.823Z,48.81
2024-05-09T15:57:41.086Z,48.05
2024-05-09T16:00:44.978Z,47.81
2024-05-09T16:03:48.363Z,48.21
2024-05-09T16:06:50.498Z,48.93
2024-05-09T16:09:52.281Z,47.79
2024-05-09T16:12:54.109Z,47.17
2024-05-09T16:15:56.143Z,48.79
2024-05-09T16:18:58.060Z,48.54
2024-05-09T16:22:00.557Z,47.85
2024-05-09T16:25:02.504Z,46.72
2024-05-09T16:28:08.548Z,47.31
2024-05-09T16:31:12.380Z,47.29
2024-05-09T16:34:14.298Z,48.54
2024-05-09T16:37:16.283Z,48.01
2024-05-09T16:40:25.549Z,47.02
2024-05-09T16:43:36.057Z,46.88
2024-05-09T16:46:37.946Z,48.24
2024-05-09T16:49:39.691Z,48.81
2024-05-09T16:52:41.619Z,47.29
2024-05-09T16:55:43.534Z,45.89
2024-05-09T16:58:45.613Z,45.86
2024-05-09T17:01:47.517Z,44.19
2024-05-09T17:04:49.472Z,44.60
2024-05-09T17:07:51.828Z,44.80
2024-05-09T17:10:53.825Z,44.71
2024-05-09T17:13:55.914Z,45.98
2024-05-09T17:16:57.862Z,44.60
2024-05-09T17:19:59.783Z,45.77
2024-05-09T17:23:02.761Z,45.05
2024-05-09T17:26:04.876Z,45.50
2024-05-09T17:29:09.262Z,44.42
2024-05-09T17:32:13.564Z,45.27
2024-05-09T17:35:15.482Z,45.24
2024-05-09T17:38:17.597Z,44.52
2024-05-09T17:41:19.440Z,45.83
2024-05-09T17:44:21.270Z,45.78
2024-05-09T17:47:23.412Z,45.12
2024-05-09T17:50:31.595Z,45.18
2024-05-09T17:53:37.389Z,45.12
2024-05-09T17:56:39.227Z,43.75
2024-05-09T17:59:41.008Z,44.08
2024-05-09T18:02:43.022Z,44.54
2024-05-09T18:05:45.448Z,44.54
2024-05-09T18:08:47.589Z,44.63
2024-05-09T18:11:49.472Z,44.14
2024-05-09T18:14:51.288Z,44.39
2024-05-09T18:17:53.208Z,44.37
2024-05-09T18:20:55.088Z,44.37
2024-05-09T18:23:59.673Z,44.67
2024-05-09T18:27:02.223Z,45.22
2024-05-09T18:30:07.206Z,44.45
2024-05-09T18:33:11.237Z,44.74
2024-05-09T18:36:13.643Z,43.98
2024-05-09T18:39:17.161Z,44.20
2024-05-09T18:42:18.974Z,44.27
2024-05-09T18:45:20.798Z,43.57
2024-05-09T18:48:22.731Z,46.04
2024-05-09T18:51:24.527Z,47.09
2024-05-09T18:54:26.339Z,46.58
2024-05-09T18:57:29.033Z,48.96
2024-05-09T19:00:35.655Z,49.10
2024-05-09T19:03:40.830Z,47.85
2024-05-09T19:06:42.903Z,47.66
2024-05-09T19:09:44.917Z,49.65
2024-05-09T19:12:46.791Z,47.61
2024-05-09T19:15:48.752Z,48.79
2024-05-09T19:18:51.705Z,48.96
2024-05-09T19:21:54.056Z,49.82
2024-05-09T19:24:55.867Z,48.46
2024-05-09T19:27:57.877Z,50.11
2024-05-09T19:30:59.842Z,48.83
2024-05-09T19:34:01.776Z,48.52
2024-05-09T19:37:04.121Z,50.15
2024-05-09T19:40:08.546Z,48.62
2024-05-09T19:43:14.355Z,49.85
2024-05-09T19:46:17.350Z,49.20
2024-05-09T19:49:20.025Z,49.77
2024-05-09T19:52:22.166Z,49.32
2024-05-09T19:55:24.042Z,48.67
2024-05-09T19:58:26.107Z,48.93
2024-05-09T20:01:28.063Z,49.76
2024-05-09T20:04:30.145Z,50.07
2024-05-09T20:07:33.191Z,49.84
2024-05-09T20:10:36.990Z,50.02
2024-05-09T20:13:39.179Z,49.98
2024-05-09T20:16:41.288Z,49.68
2024-05-09T20:19:44.186Z,49.49
2024-05-09T20:22:46.107Z,49.69
2024-05-09T20:25:47.944Z,47.92
2024-05-09T20:28:49.719Z,48.34
2024-05-09T20:31:51.594Z,48.41
2024-05-09T20:34:53.377Z,49.21
2024-05-09T20:37:55.183Z,49.09
2024-05-09T20:40:57.134Z,49.13
2024-05-09T20:44:01.752Z,48.43
2024-05-09T20:47:03.702Z,49.47
2024-05-09T20:50:11.385Z,49.25
2024-05-09T20:53:18.325Z,49.03
2024-05-09T20:56:23.376Z,48.69
2024-05-09T20:59:25.234Z,48.76
2024-05-09T21:02:27.263Z,48.92
2024-05-09T21:05:29.339Z,49.63
2024-05-09T21:08:31.289Z,49.50
2024-05-09T21:11:33.193Z,49.05
2024-05-09T21:14:35.032Z,48.96
2024-05-09T21:17:36.907Z,49.27
2024-05-09T21:20:38.830Z,49.81
2024-05-09T21:23:40.770Z,49.18
2024-05-09T21:26:42.577Z,48.55
2024-05-09T21:29:44.484Z,49.47
2024-05-09T21:32:46.465Z,49.47
2024-05-09T21:35:48.344Z,48.37
2024-05-09T21:38:50.191Z,48.96
2024-05-09T21:41:51.977Z,48.49
2024-05-09T21:44:56.658Z,48.84
2024-05-09T21:47:58.977Z,49.32
2024-05-09T21:51:01.106Z,48.90
2024-05-09T21:54:02.956Z,48.68
2024-05-09T21:57:06.720Z,49.14
2024-05-09T22:00:27.947Z,49.21
2024-05-09T22:03:36.602Z,48.42
2024-05-09T22:06:38.530Z,49.24
2024-05-09T22:09:45.490Z,48.61
2024-05-09T22:12:47.438Z,49.40
2024-05-09T22:15:49.327Z,48.75
2024-05-09T22:18:51.325Z,49.50
2024-05-09T22:21:54.046Z,49.07
2024-05-09T22:24:55.913Z,48.35
2024-05-09T22:27:57.758Z,48.75
2024-05-09T22:30:59.616Z,48.38
2024-05-09T22:34:01.494Z,49.21
2024-05-09T22:37:03.624Z,48.04
2024-05-09T22:40:06.891Z,48.80
2024-05-09T22:43:08.968Z,48.32
2024-05-09T22:46:11.209Z,48.32
2024-05-09T22:49:13.111Z,49.07
2024-05-09T22:52:15.212Z,49.13
2024-05-09T22:55:17.064Z,48.49
2024-05-09T22:58:19.232Z,48.47
2024-05-09T23:01:22.916Z,47.97
2024-05-09T23:04:26.273Z,48.68
2024-05-09T23:07:28.043Z,47.91
2024-05-09T23:10:35.802Z,48.96
2024-05-09T23:13:39.646Z,48.57
2024-05-09T23:16:42.556Z,49.10
2024-05-09T23:19:44.593Z,48.47
2024-05-09T23:22:46.449Z,47.79
2024-05-09T23:25:49.633Z,48.75
2024-05-09T23:28:51.496Z,48.92
2024-05-09T23:31:53.488Z,48.79
2024-05-09T23:34:55.473Z,48.16
2024-05-09T23:37:57.345Z,48.16
2024-05-09T23:40:59.196Z,48.73
2024-05-09T23:44:01.112Z,48.20
2024-05-09T23:47:02.968Z,48.81
2024-05-09T23:50:11.176Z,47.96
2024-05-09T23:53:18.061Z,48.74
2024-05-09T23:56:21.694Z,48.25
2024-05-09T23:59:23.488Z,48.42
